createdAt,value
2022-11-24T00:00:38.866Z,99452.81
2022-11-24T00:03:08.794Z,99451.22
2022-11-24T00:05:39.228Z,99447.72
2022-11-24T00:08:09.686Z,99445.52
2022-11-24T00:10:39.589Z,99445.02
2022-11-24T00:13:09.621Z,99446.19
2022-11-24T00:15:39.542Z,99443.71
2022-11-24T00:18:09.125Z,99450.54
2022-11-24T00:20:39.031Z,99451.38
2022-11-24T00:23:09.088Z,99456.70
2022-11-24T00:25:38.785Z,99459.68
2022-11-24T00:28:08.698Z,99452.29
2022-11-24T00:30:38.653Z,99448.96
2022-11-24T00:33:08.671Z,99450.98
2022-11-24T00:35:38.543Z,99452.17
2022-11-24T00:38:08.451Z,99460.30
2022-11-24T00:40:38.217Z,99465.78
2022-11-24T00:43:08.123Z,99464.43
2022-11-24T00:45:38.042Z,99448.40
2022-11-24T00:48:07.901Z,99451.78
2022-11-24T00:50:37.522Z,99458.16
2022-11-24T00:53:07.371Z,99454.65
2022-11-24T00:55:37.285Z,99460.56
2022-11-24T00:58:07.278Z,99457.52
2022-11-24T01:00:37.189Z,99457.52
2022-11-24T01:03:07.711Z,99457.01
2022-11-24T01:05:38.744Z,99457.91
2022-11-24T01:08:09.365Z,99465.88
2022-11-24T01:10:40.102Z,99467.52
2022-11-24T01:13:09.877Z,99464.13
2022-11-24T01:15:40.107Z,99461.53
2022-11-24T01:18:10.727Z,99464.88
2022-11-24T01:20:42.816Z,99459.12
2022-11-24T01:23:12.723Z,99454.65
2022-11-24T01:25:42.603Z,99456.58
2022-11-24T01:28:12.501Z,99456.95
2022-11-24T01:30:42.495Z,99460.75
2022-11-24T01:33:12.453Z,99458.21
2022-11-24T01:35:42.406Z,99469.83
2022-11-24T01:38:12.291Z,99469.17
2022-11-24T01:40:42.223Z,99472.83
2022-11-24T01:43:24.301Z,99478.47
2022-11-24T01:45:54.890Z,99478.47
2022-11-24T01:48:30.501Z,99477.75
2022-11-24T01:51:15.960Z,99471.77
2022-11-24T01:53:48.911Z,99482.16
2022-11-24T01:56:19.261Z,99482.16
2022-11-24T01:58:52.096Z,99475.66
2022-11-24T02:01:21.972Z,99472.88
2022-11-24T02:03:53.287Z,99472.88
2022-11-24T02:06:26.253Z,99471.59
2022-11-24T02:09:10.779Z,99470.98
2022-11-24T02:11:42.803Z,99468.39
2022-11-24T02:14:15.060Z,99470.87
2022-11-24T02:16:47.423Z,99472.11
2022-11-24T02:19:44.273Z,99471.27
2022-11-24T02:22:22.737Z,99470.98
2022-11-24T02:24:55.690Z,99467.03
2022-11-24T02:27:26.016Z,99463.91
2022-11-24T02:29:55.957Z,99463.91
2022-11-24T02:32:26.005Z,99461.55
2022-11-24T02:35:03.487Z,99462.03
2022-11-24T02:37:33.689Z,99464.37
2022-11-24T02:40:03.667Z,99464.65
2022-11-24T02:42:36.636Z,99463.75
2022-11-24T02:45:07.287Z,99464.77
2022-11-24T02:47:37.250Z,99464.81
2022-11-24T02:50:07.813Z,99470.29
2022-11-24T02:52:38.081Z,99478.24
2022-11-24T02:55:07.827Z,99476.33
2022-11-24T02:57:37.739Z,99475.98
2022-11-24T03:00:08.118Z,99479.94
2022-11-24T03:02:37.857Z,99488.45
2022-11-24T03:05:07.845Z,99487.38
2022-11-24T03:07:37.823Z,99482.42
2022-11-24T03:10:08.088Z,99489.98
2022-11-24T03:12:37.774Z,99488.73
2022-11-24T03:15:07.818Z,99482.87
2022-11-24T03:17:37.788Z,99481.91
2022-11-24T03:20:08.128Z,99494.48
2022-11-24T03:22:38.858Z,99491.89
2022-11-24T03:25:09.384Z,99491.16
2022-11-24T03:27:39.337Z,99496.97
2022-11-24T03:30:10.049Z,99491.50
2022-11-24T03:32:40.344Z,99492.34
2022-11-24T03:35:10.176Z,99504.02
2022-11-24T03:37:40.381Z,99505.27
2022-11-24T03:40:10.893Z,99504.08
2022-11-24T03:42:41.396Z,99505.44
2022-11-24T03:45:38.177Z,99500.89
2022-11-24T03:47:43.162Z,99505.77
2022-11-24T03:50:12.774Z,99503.58
2022-11-24T03:52:42.792Z,99510.20
2022-11-24T03:55:12.766Z,99503.13
2022-11-24T03:57:42.650Z,99502.19
2022-11-24T04:00:13.036Z,99498.46
2022-11-24T04:02:42.806Z,99499.13
2022-11-24T04:05:12.446Z,99492.76
2022-11-24T04:07:42.486Z,99491.86
2022-11-24T04:10:12.298Z,99491.86
2022-11-24T04:12:44.988Z,99497.72
2022-11-24T04:15:18.503Z,99499.53
2022-11-24T04:17:49.958Z,99499.41
2022-11-24T04:20:18.973Z,99495.91
2022-11-24T04:22:48.479Z,99498.91
2022-11-24T04:25:18.206Z,99498.64
2022-11-24T04:27:51.351Z,99502.69
2022-11-24T04:30:22.167Z,99509.53
2022-11-24T04:32:51.207Z,99506.02
2022-11-24T04:35:21.518Z,99507.73
2022-11-24T04:37:51.361Z,99510.27
2022-11-24T04:40:21.478Z,99506.94
2022-11-24T04:42:56.054Z,99509.88
2022-11-24T04:45:26.505Z,99516.02
2022-11-24T04:47:56.117Z,99520.59
2022-11-24T04:50:26.104Z,99530.30
2022-11-24T04:52:59.064Z,99533.73
2022-11-24T04:55:28.950Z,99539.33
2022-11-24T04:57:58.851Z,99541.92
2022-11-24T05:00:28.754Z,99547.00
2022-11-24T05:02:59.011Z,99554.67
2022-11-24T05:05:28.980Z,99555.14
2022-11-24T05:08:00.989Z,99564.06
2022-11-24T05:10:37.385Z,99564.06
2022-11-24T05:13:10.003Z,99566.13
2022-11-24T05:15:43.661Z,99574.36
2022-11-24T05:18:16.452Z,99579.78
2022-11-24T05:20:46.348Z,99572.13
2022-11-24T05:23:16.382Z,99574.70
2022-11-24T05:25:47.744Z,99580.03
2022-11-24T05:28:18.053Z,99575.41
2022-11-24T05:30:48.191Z,99574.11
2022-11-24T05:33:20.368Z,99576.14
2022-11-24T05:35:51.841Z,99578.56
2022-11-24T05:38:23.690Z,99575.57
2022-11-24T05:40:53.629Z,99579.86
2022-11-24T05:43:23.179Z,99575.97
2022-11-24T05:45:53.043Z,99578.17
2022-11-24T05:48:22.742Z,99578.67
2022-11-24T05:50:59.348Z,99575.63
2022-11-24T05:53:29.521Z,99577.45
2022-11-24T05:55:59.419Z,99577.45
2022-11-24T05:58:29.240Z,99582.48
2022-11-24T06:00:59.092Z,99582.02
2022-11-24T06:03:28.932Z,99588.91
2022-11-24T06:05:58.743Z,99586.83
2022-11-24T06:08:31.202Z,99596.31
2022-11-24T06:11:05.716Z,99593.94
2022-11-24T06:13:35.925Z,99603.93
2022-11-24T06:16:07.136Z,99609.19
2022-11-24T06:18:37.497Z,99609.41
2022-11-24T06:21:11.919Z,99615.91
2022-11-24T06:23:39.048Z,99620.31
2022-11-24T06:26:09.339Z,99632.91
2022-11-24T06:28:39.159Z,99625.00
2022-11-24T06:31:08.805Z,99643.91
2022-11-24T06:33:40.159Z,99638.55
2022-11-24T06:36:13.250Z,99655.34
2022-11-24T06:38:43.135Z,99655.34
2022-11-24T06:41:15.700Z,99662.97
2022-11-24T06:43:46.535Z,99664.04
2022-11-24T06:46:16.392Z,99676.13
2022-11-24T06:48:46.331Z,99683.30
2022-11-24T06:51:15.911Z,99681.89
2022-11-24T06:53:46.049Z,99694.04
2022-11-24T06:56:17.736Z,99688.84
2022-11-24T06:58:50.005Z,99689.35
2022-11-24T07:01:25.701Z,99692.52
2022-11-24T07:03:58.166Z,99695.68
2022-11-24T07:06:28.521Z,99698.91
2022-11-24T07:08:58.357Z,99702.29
2022-11-24T07:11:28.469Z,99706.98
2022-11-24T07:14:00.214Z,99709.88
2022-11-24T07:16:30.257Z,99709.48
2022-11-24T07:19:00.565Z,99713.95
2022-11-24T07:21:30.933Z,99708.92
2022-11-24T07:24:01.187Z,99704.91
2022-11-24T07:26:31.019Z,99701.84
2022-11-24T07:29:00.833Z,99701.84
2022-11-24T07:31:30.712Z,99707.90
2022-11-24T07:34:01.162Z,99707.90
2022-11-24T07:36:30.982Z,99696.64
2022-11-24T07:39:00.982Z,99696.43
2022-11-24T07:41:30.814Z,99710.77
2022-11-24T07:44:01.008Z,99711.77
2022-11-24T07:46:30.883Z,99709.75
2022-11-24T07:49:00.720Z,99707.99
2022-11-24T07:51:30.537Z,99714.16
2022-11-24T07:54:00.359Z,99714.62
2022-11-24T07:56:30.201Z,99711.72
2022-11-24T07:59:00.507Z,99709.69
2022-11-24T08:01:30.412Z,99710.63
2022-11-24T08:04:01.874Z,99709.13
2022-11-24T08:06:39.648Z,99709.32
2022-11-24T08:09:03.795Z,99711.34
2022-11-24T08:11:34.880Z,99713.89
2022-11-24T08:14:04.739Z,99717.61
2022-11-24T08:16:34.609Z,99723.41
2022-11-24T08:19:04.464Z,99725.83
2022-11-24T08:21:34.357Z,99726.80
2022-11-24T08:24:04.595Z,99727.19
2022-11-24T08:26:34.364Z,99732.45
2022-11-24T08:29:04.200Z,99737.20
2022-11-24T08:31:36.287Z,99737.20
2022-11-24T08:34:07.641Z,99742.02
2022-11-24T08:36:37.468Z,99745.92
2022-11-24T08:39:07.231Z,99743.97
2022-11-24T08:41:37.047Z,99747.30
2022-11-24T08:44:08.425Z,99746.12
2022-11-24T08:46:38.713Z,99744.36
2022-11-24T08:49:08.989Z,99744.59
2022-11-24T08:51:40.999Z,99743.13
2022-11-24T08:54:13.576Z,99753.88
2022-11-24T08:56:43.683Z,99753.88
2022-11-24T08:59:14.793Z,99757.78
2022-11-24T09:01:44.732Z,99759.99
2022-11-24T09:04:14.315Z,99757.59
2022-11-24T09:06:44.158Z,99759.48
2022-11-24T09:09:13.821Z,99752.16
2022-11-24T09:11:43.664Z,99760.04
2022-11-24T09:14:13.167Z,99764.91
2022-11-24T09:16:44.063Z,99766.57
2022-11-24T09:19:13.980Z,99762.47
2022-11-24T09:21:44.114Z,99760.64
2022-11-24T09:24:13.598Z,99759.23
2022-11-24T09:26:47.615Z,99763.30
2022-11-24T09:29:15.177Z,99760.78
2022-11-24T09:31:45.388Z,99759.16
2022-11-24T09:34:16.482Z,99758.91
2022-11-24T09:36:46.398Z,99755.55
2022-11-24T09:39:16.231Z,99759.13
2022-11-24T09:42:08.311Z,99756.32
2022-11-24T09:44:59.167Z,99759.96
2022-11-24T09:47:57.225Z,99759.50
2022-11-24T09:50:33.051Z,99763.16
2022-11-24T09:53:11.705Z,99762.83
2022-11-24T09:55:53.373Z,99769.91
2022-11-24T09:58:38.121Z,99765.31
2022-11-24T10:01:22.636Z,99764.37
2022-11-24T10:03:54.238Z,99758.34
2022-11-24T10:06:34.389Z,99753.02
2022-11-24T10:09:29.684Z,99756.47
2022-11-24T10:12:11.434Z,99750.69
2022-11-24T10:14:59.182Z,99761.39
2022-11-24T10:17:34.709Z,99757.29
2022-11-24T10:20:19.589Z,99761.16
2022-11-24T10:22:58.164Z,99757.62
2022-11-24T10:25:53.772Z,99757.36
2022-11-24T10:28:25.099Z,99757.25
2022-11-24T10:30:58.075Z,99758.86
2022-11-24T10:33:31.063Z,99763.25
2022-11-24T10:36:04.075Z,99761.25
2022-11-24T10:38:48.731Z,99761.25
2022-11-24T10:41:25.719Z,99765.02
2022-11-24T10:43:58.913Z,99774.85
2022-11-24T10:46:34.880Z,99771.87
2022-11-24T10:49:06.606Z,99768.16
2022-11-24T10:52:04.634Z,99770.80
2022-11-24T10:54:36.092Z,99765.00
2022-11-24T10:57:06.450Z,99773.65
2022-11-24T10:59:40.717Z,99771.44
2022-11-24T11:02:36.343Z,99775.09
2022-11-24T11:05:36.868Z,99776.20
2022-11-24T11:08:29.177Z,99771.41
2022-11-24T11:11:17.724Z,99765.63
2022-11-24T11:14:03.016Z,99770.62
2022-11-24T11:16:39.868Z,99765.47
2022-11-24T11:19:51.831Z,99762.11
2022-11-24T11:22:12.319Z,99760.81
2022-11-24T11:24:44.900Z,99758.38
2022-11-24T11:27:27.490Z,99757.31
2022-11-24T11:35:07.721Z,99759.24
2022-11-24T11:37:37.605Z,99755.80
2022-11-24T11:40:10.308Z,99768.62
2022-11-24T11:43:01.841Z,99769.98
2022-11-24T11:45:22.899Z,99762.71
2022-11-24T11:47:59.028Z,99762.71
2022-11-24T11:50:52.998Z,99768.62
2022-11-24T11:53:31.016Z,99765.02
2022-11-24T11:56:22.129Z,99770.47
2022-11-24T11:59:01.012Z,99776.70
2022-11-24T12:01:50.378Z,99773.07
2022-11-24T12:04:47.571Z,99774.20
2022-11-24T12:07:53.787Z,99778.86
2022-11-24T12:10:38.288Z,99771.41
2022-11-24T12:13:11.157Z,99768.31
2022-11-24T12:15:59.393Z,99769.15
2022-11-24T12:18:59.392Z,99769.48
2022-11-24T12:21:40.682Z,99766.09
2022-11-24T12:24:24.892Z,99774.44
2022-11-24T12:26:57.800Z,99769.78
2022-11-24T12:29:33.801Z,99773.53
2022-11-24T12:32:28.446Z,99770.49
2022-11-24T12:35:07.082Z,99765.08
2022-11-24T12:37:54.790Z,99765.08
2022-11-24T12:40:30.365Z,99760.03
2022-11-24T12:43:21.445Z,99774.23
2022-11-24T12:45:54.232Z,99774.23
2022-11-24T12:48:56.094Z,99782.39
2022-11-24T12:51:28.760Z,99767.49
2022-11-24T12:54:00.913Z,99782.42
2022-11-24T12:56:42.661Z,99779.64
2022-11-24T12:59:37.069Z,99781.08
2022-11-24T13:02:28.031Z,99778.34
2022-11-24T13:05:03.550Z,99781.14
2022-11-24T13:07:42.421Z,99790.02
2022-11-24T13:13:07.322Z,99778.77
2022-11-24T13:16:35.122Z,99789.31
2022-11-24T13:18:57.863Z,99788.98
2022-11-24T13:21:50.124Z,99791.61
2022-11-24T13:24:22.779Z,99789.78
2022-11-24T13:26:58.044Z,99794.19
2022-11-24T13:29:39.059Z,99804.63
2022-11-24T13:32:10.713Z,99804.63
2022-11-24T13:34:43.740Z,99811.91
2022-11-24T13:37:34.508Z,99813.05
2022-11-24T13:40:05.583Z,99814.97
2022-11-24T13:42:42.157Z,99810.12
2022-11-24T13:45:13.285Z,99807.98
2022-11-24T13:47:47.131Z,99809.48
2022-11-24T13:50:25.936Z,99815.48
2022-11-24T13:53:21.387Z,99809.25
2022-11-24T13:56:02.970Z,99799.12
2022-11-24T13:58:44.896Z,99806.58
2022-11-24T14:01:31.935Z,99803.58
2022-11-24T14:04:31.067Z,99797.85
2022-11-24T14:07:07.055Z,99811.24
2022-11-24T14:09:53.097Z,99824.73
2022-11-24T14:12:23.310Z,99824.78
2022-11-24T14:14:58.124Z,99825.70
2022-11-24T14:17:29.129Z,99823.47
2022-11-24T14:19:59.932Z,99821.23
2022-11-24T14:22:41.363Z,99838.01
2022-11-24T14:25:31.284Z,99838.01
2022-11-24T14:28:02.316Z,99834.47
2022-11-24T14:30:32.247Z,99845.08
2022-11-24T14:33:04.411Z,99853.70
2022-11-24T14:35:36.668Z,99849.73
2022-11-24T14:38:09.648Z,99849.73
2022-11-24T14:40:51.488Z,99854.23
2022-11-24T14:43:34.636Z,99858.11
2022-11-24T14:46:09.535Z,99856.77
2022-11-24T14:48:53.231Z,99861.33
2022-11-24T14:51:31.265Z,99859.49
2022-11-24T14:54:07.325Z,99858.94
2022-11-24T14:56:39.761Z,99860.62
2022-11-24T14:59:23.684Z,99860.85
2022-11-24T15:01:53.938Z,99866.01
2022-11-24T15:07:05.874Z,99867.88
2022-11-24T15:09:50.659Z,99870.06
2022-11-24T15:12:30.683Z,99870.36
2022-11-24T15:15:09.567Z,99870.68
2022-11-24T15:17:48.032Z,99874.06
2022-11-24T15:20:23.293Z,99869.48
2022-11-24T15:22:55.452Z,99878.63
2022-11-24T15:25:35.908Z,99884.05
2022-11-24T15:28:08.690Z,99891.15
2022-11-24T15:30:39.029Z,99890.58
2022-11-24T15:33:17.733Z,99890.06
2022-11-24T15:35:48.027Z,99892.25
2022-11-24T15:38:18.241Z,99896.63
2022-11-24T15:40:49.381Z,99897.48
2022-11-24T15:43:21.927Z,99896.70
2022-11-24T15:45:51.759Z,99905.06
2022-11-24T15:48:22.040Z,99905.06
2022-11-24T15:50:53.766Z,99912.91
2022-11-24T15:53:33.426Z,99909.05
2022-11-24T15:56:06.467Z,99906.52
2022-11-24T15:58:36.675Z,99911.52
2022-11-24T16:01:06.891Z,99912.30
2022-11-24T16:03:52.193Z,99918.51
2022-11-24T16:06:07.755Z,99917.35
2022-11-24T16:08:37.273Z,99914.91
2022-11-24T16:11:07.606Z,99921.33
2022-11-24T16:13:37.763Z,99913.81
2022-11-24T16:16:07.883Z,99916.63
2022-11-24T16:18:39.926Z,99916.63
2022-11-24T16:21:11.193Z,99919.36
2022-11-24T16:23:41.025Z,99917.84
2022-11-24T16:26:11.598Z,99919.61
2022-11-24T16:28:42.067Z,99929.05
2022-11-24T16:31:12.889Z,99929.25
2022-11-24T16:33:44.753Z,99932.77
2022-11-24T16:36:15.458Z,99932.77
2022-11-24T16:38:45.411Z,99929.70
2022-11-24T16:41:16.974Z,99936.16
2022-11-24T16:43:47.249Z,99940.08
2022-11-24T16:46:22.606Z,99943.43
2022-11-24T16:48:55.015Z,99940.67
2022-11-24T16:51:29.934Z,99950.41
2022-11-24T16:54:02.065Z,99957.37
2022-11-24T16:56:32.381Z,99952.66
2022-11-24T16:59:02.194Z,99953.98
2022-11-24T17:01:33.176Z,99960.90
2022-11-24T17:04:05.100Z,99967.64
2022-11-24T17:06:38.206Z,99971.52
2022-11-24T17:09:08.110Z,99974.69
2022-11-24T17:11:38.958Z,99971.95
2022-11-24T17:14:10.430Z,99976.55
2022-11-24T17:16:40.459Z,99974.66
2022-11-24T17:19:10.377Z,99973.38
2022-11-24T17:21:40.278Z,99978.20
2022-11-24T17:24:12.032Z,99982.09
2022-11-24T17:26:47.461Z,99985.28
2022-11-24T17:29:13.601Z,99990.08
2022-11-24T17:31:43.472Z,99991.63
2022-11-24T17:34:14.051Z,99995.28
2022-11-24T17:36:45.574Z,100000.32
2022-11-24T17:39:17.114Z,100001.73
2022-11-24T17:41:46.984Z,100002.39
2022-11-24T17:44:16.821Z,100006.52
2022-11-24T17:46:46.649Z,100001.69
2022-11-24T17:49:16.456Z,100006.91
2022-11-24T17:51:48.280Z,100008.27
2022-11-24T17:56:51.620Z,100005.14
2022-11-24T17:59:21.449Z,100012.84
2022-11-24T18:01:52.183Z,100015.00
2022-11-24T18:04:22.257Z,100017.22
2022-11-24T18:06:52.086Z,100024.17
2022-11-24T18:09:21.596Z,100017.39
2022-11-24T18:11:52.119Z,100021.56
2022-11-24T18:14:21.810Z,100028.03
2022-11-24T18:16:51.774Z,100024.51
2022-11-24T18:19:21.483Z,100024.84
2022-11-24T18:21:51.474Z,100032.73
2022-11-24T18:24:24.253Z,100035.73
2022-11-24T18:26:52.881Z,100035.73
2022-11-24T18:29:22.704Z,100034.75
2022-11-24T18:31:52.585Z,100032.71
2022-11-24T18:34:24.098Z,100033.87
2022-11-24T18:36:53.040Z,100033.25
2022-11-24T18:39:22.784Z,100038.72
2022-11-24T18:41:52.591Z,100039.23
2022-11-24T18:44:22.487Z,100039.33
2022-11-24T18:46:52.218Z,100037.48
2022-11-24T18:49:22.029Z,100036.45
2022-11-24T18:51:52.945Z,100032.93
2022-11-24T18:54:23.184Z,100028.69
2022-11-24T18:56:53.559Z,100025.69
2022-11-24T18:59:26.126Z,100027.59
2022-11-24T19:01:56.576Z,100027.71
2022-11-24T19:04:26.319Z,100029.53
2022-11-24T19:06:56.204Z,100032.20
2022-11-24T19:09:26.022Z,100034.61
2022-11-24T19:11:55.934Z,100035.98
2022-11-24T19:14:25.757Z,100038.20
2022-11-24T19:16:56.026Z,100045.75
2022-11-24T19:19:25.887Z,100043.20
2022-11-24T19:21:56.074Z,100041.80
2022-11-24T19:24:26.182Z,100038.53
2022-11-24T19:26:56.175Z,100040.10
2022-11-24T19:29:25.965Z,100044.45
2022-11-24T19:31:56.026Z,100051.36
2022-11-24T19:34:25.862Z,100047.84
2022-11-24T19:36:56.049Z,100046.91
2022-11-24T19:39:25.809Z,100051.52
2022-11-24T19:41:55.656Z,100057.06
2022-11-24T19:44:26.004Z,100056.03
2022-11-24T19:46:55.861Z,100065.39
2022-11-24T19:49:25.723Z,100067.88
2022-11-24T19:51:55.526Z,100073.51
2022-11-24T19:54:25.347Z,100078.20
2022-11-24T19:56:56.341Z,100067.61
2022-11-24T19:59:26.530Z,100073.49
2022-11-24T20:01:57.711Z,100079.10
2022-11-24T20:04:26.659Z,100079.10
2022-11-24T20:06:56.602Z,100083.31
2022-11-24T20:09:26.482Z,100082.80
2022-11-24T20:11:58.808Z,100084.49
2022-11-24T20:14:28.912Z,100090.78
2022-11-24T20:16:58.934Z,100096.45
2022-11-24T20:19:28.917Z,100094.99
2022-11-24T20:21:58.698Z,100100.94
2022-11-24T20:24:28.626Z,100105.52
2022-11-24T20:27:00.168Z,100104.55
2022-11-24T20:29:31.767Z,100110.38
2022-11-24T20:32:02.088Z,100110.38
2022-11-24T20:34:31.958Z,100110.05
2022-11-24T20:37:01.976Z,100120.15
2022-11-24T20:39:31.619Z,100118.33
2022-11-24T20:42:01.475Z,100119.00
2022-11-24T20:44:32.789Z,100113.78
2022-11-24T20:49:54.179Z,100121.03
2022-11-24T20:52:23.698Z,100123.64
2022-11-24T20:54:53.480Z,100120.06
2022-11-24T20:57:23.040Z,100126.06
2022-11-24T20:59:52.833Z,100123.91
2022-11-24T21:02:22.704Z,100128.28
2022-11-24T21:04:52.463Z,100126.46
2022-11-24T21:07:22.334Z,100134.17
2022-11-24T21:09:52.151Z,100139.39
2022-11-24T21:12:21.753Z,100137.38
2022-11-24T21:14:51.720Z,100138.75
2022-11-24T21:17:21.620Z,100138.36
2022-11-24T21:19:52.599Z,100146.85
2022-11-24T21:22:23.216Z,100141.11
2022-11-24T21:24:53.010Z,100144.12
2022-11-24T21:27:22.944Z,100136.80
2022-11-24T21:29:52.768Z,100139.75
2022-11-24T21:32:23.133Z,100137.31
2022-11-24T21:34:53.510Z,100140.77
2022-11-24T21:37:23.343Z,100146.33
2022-11-24T21:39:53.243Z,100147.62
2022-11-24T21:42:22.810Z,100146.72
2022-11-24T21:44:52.602Z,100152.60
2022-11-24T21:47:22.384Z,100150.38
2022-11-24T21:49:52.195Z,100145.66
2022-11-24T21:52:22.651Z,100148.16
2022-11-24T21:54:52.220Z,100142.73
2022-11-24T21:57:23.154Z,100146.28
2022-11-24T21:59:53.176Z,100160.52
2022-11-24T22:02:22.735Z,100159.57
2022-11-24T22:04:52.580Z,100159.73
2022-11-24T22:07:22.322Z,100163.17
2022-11-24T22:09:52.155Z,100158.98
2022-11-24T22:12:21.660Z,100151.70
2022-11-24T22:14:51.458Z,100151.86
2022-11-24T22:17:20.999Z,100158.79
2022-11-24T22:19:50.791Z,100155.42
2022-11-24T22:22:20.608Z,100155.52
2022-11-24T22:24:50.401Z,100149.77
2022-11-24T22:27:20.203Z,100154.73
2022-11-24T22:29:54.163Z,100159.85
2022-11-24T22:32:22.397Z,100155.98
2022-11-24T22:34:52.256Z,100162.58
2022-11-24T22:37:21.769Z,100162.58
2022-11-24T22:39:51.567Z,100163.42
2022-11-24T22:42:21.061Z,100168.08
2022-11-24T22:44:50.884Z,100163.48
2022-11-24T22:47:20.465Z,100167.61
2022-11-24T22:49:50.266Z,100171.91
2022-11-24T22:52:20.138Z,100171.91
2022-11-24T22:54:49.956Z,100179.31
2022-11-24T22:57:19.535Z,100182.38
2022-11-24T22:59:49.331Z,100178.34
2022-11-24T23:02:18.842Z,100174.42
2022-11-24T23:04:48.699Z,100183.50
2022-11-24T23:07:18.760Z,100188.27
2022-11-24T23:09:48.628Z,100185.37
2022-11-24T23:12:18.506Z,100185.37
2022-11-24T23:14:48.394Z,100184.33
2022-11-24T23:17:18.174Z,100177.92
2022-11-24T23:19:48.294Z,100173.02
2022-11-24T23:22:18.082Z,100174.08
2022-11-24T23:24:47.959Z,100172.83
2022-11-24T23:27:17.616Z,100172.83
2022-11-24T23:29:47.418Z,100174.66
2022-11-24T23:32:17.121Z,100172.50
2022-11-24T23:34:47.007Z,100176.03
2022-11-24T23:37:16.794Z,100181.25
2022-11-24T23:39:46.650Z,100184.33
2022-11-24T23:42:16.452Z,100185.05
2022-11-24T23:44:46.265Z,100184.33
2022-11-24T23:47:16.329Z,100184.39
2022-11-24T23:49:46.142Z,100187.73
2022-11-24T23:52:15.635Z,100187.73
2022-11-24T23:54:45.447Z,100192.01
2022-11-24T23:57:15.101Z,100189.79
2022-11-24T23:59:44.951Z,100183.52
